Mayo, Canada
Current Conditions -  °F | °C
As of 4:26 AM on Friday 31 Oct 2014 (Local Time) from CYMA Reporting Station
Light Snow Light Snow  
Wind Chill: 28°   Ceiling: 4000
Heat Index: 28°   Visibility: 1mi
Dew Point: 28°   Wind: 2mph
Humidity: 100%   Direction: NA
Pressure: 29.2"   Gusts: NA
Location:  63.6°N, 135.88°W
Report Text: CYMA 311126Z VRB02KT 1SM -SN OVC040 M02/M02 A2920 RMK SN6SC2 SLP917
Loading
Personal Weather Stations






























Interactive Weather Map
Tropical Storm Tracking
New forecast layout! Learn more

10-Day Weather Forecast

Advertisements
Track Severe Weather on mobile